Time;durP1;ratioP1;P1;durP2;ratioP2;P2;SDS_P1;SDS_P2;PMS_P1;PMS_P2;Temp;Humidity;BMP_temperature;BMP_pressure;BME280_temperature;BME280_humidity;BME280_pressure;Samples;Min_cycle;Max_cycle;Signal;HPM_P1;HPM_P2
2022/07/06 00:02:07;;;;;;;7.60;6.93;;;;;;;20.72;82.76;94430.44;2620672;54;20164;-84
2022/07/06 00:04:35;;;;;;;7.03;6.25;;;;;;;21.16;78.97;94441.47;2617790;47;20635;-83
2022/07/06 00:07:04;;;;;;;5.15;4.57;;;;;;;21.25;77.26;94421.94;2617575;47;20204;-84
2022/07/06 00:09:33;;;;;;;5.97;5.38;;;;;;;21.75;75.09;94440.75;2617592;47;20695;-83
2022/07/06 00:12:02;;;;;;;6.50;5.18;;;;;;;21.70;75.39;94442.28;2617224;47;20665;-83
2022/07/06 00:14:31;;;;;;;4.57;4.22;;;;;;;21.66;74.33;94421.44;2616052;54;20197;-83
2022/07/06 00:16:59;;;;;;;4.68;4.38;;;;;;;21.98;73.92;94464.94;2617405;47;20172;-83
2022/07/06 00:19:31;;;;;;;4.03;3.83;;;;;;;21.92;73.42;94452.75;2617440;47;20164;-81
2022/07/06 00:21:59;;;;;;;8.90;4.90;;;;;;;21.69;73.06;94431.47;2617335;54;20157;-81
2022/07/06 00:24:28;;;;;;;4.95;4.65;;;;;;;21.59;73.56;94417.94;2617140;54;20672;-81
2022/07/06 00:26:57;;;;;;;4.38;4.07;;;;;;;21.36;76.47;94442.69;2617432;39;20544;-82
2022/07/06 00:29:26;;;;;;;5.22;4.43;;;;;;;21.64;76.51;94486.28;2617116;54;20212;-84
2022/07/06 00:31:54;;;;;;;4.18;3.88;;;;;;;21.37;77.96;94470.06;2617803;47;20604;-84
2022/07/06 00:34:23;;;;;;;4.57;4.20;;;;;;;21.10;78.31;94460.97;2616996;54;20172;-84
2022/07/06 00:36:55;;;;;;;4.13;3.83;;;;;;;21.06;79.88;94492.69;2617523;54;20168;-83
2022/07/06 00:39:28;;;;;;;4.38;3.97;;;;;;;20.72;81.41;94474.31;2617743;54;20687;-81
2022/07/06 00:41:57;;;;;;;3.67;3.22;;;;;;;20.52;82.27;94498.22;2618083;54;20676;-81
2022/07/06 00:44:26;;;;;;;4.38;3.90;;;;;;;20.69;81.62;94484.41;2617981;54;20168;-84
2022/07/06 00:46:55;;;;;;;4.15;3.30;;;;;;;20.12;82.44;94443.88;2617378;46;20165;-83
2022/07/06 00:52:08;;;;;;;3.95;3.65;;;;;;;20.63;80.69;94486.66;2617607;47;20168;-84
2022/07/06 00:54:38;;;;;;;3.60;3.35;;;;;;;20.28;80.57;94414.28;2617988;47;20168;-83
2022/07/06 00:57:07;;;;;;;6.60;3.90;;;;;;;20.50;79.91;94420.56;2617738;54;20215;-83
2022/07/06 00:59:36;;;;;;;4.47;4.10;;;;;;;21.17;77.87;94471.00;2617930;47;20160;-83
2022/07/06 01:02:05;;;;;;;4.25;3.95;;;;;;;21.07;76.93;94419.97;2617894;54;20176;-83
2022/07/06 01:04:34;;;;;;;4.70;4.30;;;;;;;21.15;76.44;94416.28;2618052;46;20169;-83
2022/07/06 01:07:04;;;;;;;4.35;4.00;;;;;;;21.64;75.22;94448.81;2617883;54;20165;-83
2022/07/06 01:09:36;;;;;;;4.55;4.22;;;;;;;21.70;76.06;94438.66;2618105;54;20141;-80
2022/07/06 01:12:06;;;;;;;5.38;4.95;;;;;;;21.66;73.31;94384.69;2618892;47;20161;-80
2022/07/06 01:14:35;;;;;;;6.22;4.63;;;;;;;21.92;72.43;94415.28;2618935;47;20164;-83
2022/07/06 01:17:05;;;;;;;3.95;3.63;;;;;;;21.26;73.70;94360.72;2618144;47;20157;-83
2022/07/06 01:19:34;;;;;;;4.60;3.28;;;;;;;21.67;71.80;94374.56;2617777;54;20152;-83
2022/07/06 01:22:06;;;;;;;4.00;3.60;;;;;;;22.15;71.42;94409.91;2617955;47;20156;-83
2022/07/06 01:24:37;;;;;;;3.88;3.60;;;;;;;22.07;71.21;94416.53;2617645;54;20181;-83
2022/07/06 01:27:07;;;;;;;5.45;4.03;;;;;;;22.28;71.69;94448.63;2618116;54;20145;-83
2022/07/06 01:29:37;;;;;;;9.93;4.22;;;;;;;21.79;72.76;94422.69;2617646;54;20153;-83
2022/07/06 01:32:07;;;;;;;4.35;4.05;;;;;;;21.50;73.94;94407.94;2617586;47;20161;-83
2022/07/06 01:34:36;;;;;;;4.40;4.00;;;;;;;21.59;73.21;94412.84;2617407;54;20165;-83
2022/07/06 01:37:08;;;;;;;4.80;4.38;;;;;;;21.73;73.97;94440.06;2617957;47;20161;-83
2022/07/06 01:39:37;;;;;;;4.53;4.13;;;;;;;20.90;75.60;94372.69;2617843;47;20265;-83
2022/07/06 01:42:07;;;;;;;4.82;3.78;;;;;;;20.92;75.34;94378.41;2617626;47;20153;-83
2022/07/06 01:44:35;;;;;;;3.78;3.50;;;;;;;21.44;75.10;94437.56;2617871;39;20542;-83
2022/07/06 01:47:05;;;;;;;4.30;4.00;;;;;;;21.33;74.56;94406.72;2617671;54;20946;-83
2022/07/06 01:49:33;;;;;;;4.05;3.75;;;;;;;21.64;74.34;94440.16;2617191;54;20144;-83
2022/07/06 01:52:02;;;;;;;3.35;3.15;;;;;;;20.77;76.93;94403.06;2619308;47;20179;-82
2022/07/06 01:54:33;;;;;;;3.97;3.67;;;;;;;20.69;77.66;94418.22;2618456;47;20163;-83
2022/07/06 01:57:02;;;;;;;6.07;4.32;;;;;;;20.88;77.14;94448.25;2616923;47;21088;-83
2022/07/06 01:59:31;;;;;;;3.80;3.50;;;;;;;20.60;78.38;94456.44;2616986;47;20165;-80
2022/07/06 02:02:00;;;;;;;4.10;3.70;;;;;;;20.37;77.46;94399.09;2617533;54;20625;-81
2022/07/06 02:04:29;;;;;;;4.65;3.70;;;;;;;20.20;78.24;94412.91;2617526;54;20152;-83
2022/07/06 02:06:58;;;;;;;3.90;3.70;;;;;;;20.84;77.06;94447.56;2617431;47;20161;-83
2022/07/06 02:09:27;;;;;;;3.85;3.55;;;;;;;20.83;75.25;94423.84;2617622;54;20148;-84
2022/07/06 02:11:59;;;;;;;4.13;3.83;;;;;;;21.06;75.36;94447.34;2617565;54;20152;-84
2022/07/06 02:14:27;;;;;;;5.20;3.58;;;;;;;20.88;77.24;94450.44;2617399;46;20173;-84
2022/07/06 02:16:56;;;;;;;3.88;3.58;;;;;;;21.20;75.43;94440.72;2617424;54;20153;-84
2022/07/06 02:19:25;;;;;;;3.50;3.30;;;;;;;21.13;72.13;94410.56;2618286;31;20622;-84
2022/07/06 02:21:53;;;;;;;3.50;3.20;;;;;;;20.93;72.08;94399.97;2617440;47;20165;-84
2022/07/06 02:24:22;;;;;;;3.90;3.20;;;;;;;21.54;72.36;94445.34;2617138;54;20173;-84
2022/07/06 02:26:51;;;;;;;2.85;2.65;;;;;;;21.38;73.06;94442.69;2617228;54;20173;-83
2022/07/06 02:29:22;;;;;;;3.55;3.25;;;;;;;21.22;71.76;94421.25;2617202;47;20161;-84
2022/07/06 02:31:51;;;;;;;3.30;3.10;;;;;;;21.45;72.90;94438.28;2617577;54;20164;-84
2022/07/06 02:34:20;;;;;;;3.33;3.03;;;;;;;21.33;71.96;94409.59;2617399;47;20197;-81
2022/07/06 02:36:48;;;;;;;3.53;3.22;;;;;;;21.67;70.56;94420.69;2617227;47;20272;-81
2022/07/06 02:39:17;;;;;;;3.05;2.88;;;;;;;21.75;72.25;94443.63;2617684;54;20159;-83
2022/07/06 02:41:46;;;;;;;5.32;3.83;;;;;;;21.66;71.49;94416.38;2618776;51;20168;-84
2022/07/06 02:44:15;;;;;;;4.05;3.13;;;;;;;21.89;69.08;94408.13;2618698;47;20845;-84
2022/07/06 02:46:46;;;;;;;4.15;3.70;;;;;;;22.12;69.54;94446.03;2617248;47;20680;-84
2022/07/06 02:49:15;;;;;;;3.80;3.53;;;;;;;21.96;68.79;94441.19;2617316;54;20157;-81
2022/07/06 02:51:44;;;;;;;3.00;2.80;;;;;;;21.82;70.67;94433.44;2617255;54;20172;-81
2022/07/06 02:54:12;;;;;;;3.22;2.58;;;;;;;21.53;69.47;94372.59;2617147;47;20168;-84
2022/07/06 02:56:41;;;;;;;4.20;3.88;;;;;;;21.65;70.13;94414.94;2617220;54;20176;-84
2022/07/06 02:59:10;;;;;;;4.32;3.97;;;;;;;20.45;74.36;94435.72;2617209;46;20427;-84
2022/07/06 03:01:38;;;;;;;3.60;3.35;;;;;;;20.23;77.79;94453.84;2617014;54;20613;-84
2022/07/06 03:04:10;;;;;;;6.03;3.92;;;;;;;19.90;78.24;94423.91;2617344;54;20168;-82
2022/07/06 03:06:39;;;;;;;3.22;3.03;;;;;;;19.98;77.64;94409.47;2617029;47;20161;-82
2022/07/06 03:09:07;;;;;;;4.55;4.15;;;;;;;20.02;78.05;94426.69;2617208;54;20164;-85
2022/07/06 03:11:37;;;;;;;4.38;4.07;;;;;;;20.32;77.13;94449.47;2617677;39;20590;-85
2022/07/06 03:14:06;;;;;;;4.10;3.80;;;;;;;19.38;79.87;94423.47;2617589;47;20206;-83
2022/07/06 03:16:35;;;;;;;3.95;3.65;;;;;;;20.01;78.11;94413.75;2617389;47;20173;-84
2022/07/06 03:19:04;;;;;;;3.42;3.10;;;;;;;20.58;75.04;94419.78;2617077;54;20168;-81
2022/07/06 03:21:35;;;;;;;3.90;3.50;;;;;;;20.97;72.32;94414.34;2617252;47;20664;-81
2022/07/06 03:24:04;;;;;;;3.35;2.95;;;;;;;21.32;70.55;94462.94;2616825;54;20168;-83
2022/07/06 03:26:33;;;;;;;4.63;3.80;;;;;;;20.75;70.28;94403.78;2617055;54;20141;-83
2022/07/06 03:29:02;;;;;;;4.55;2.38;;;;;;;20.57;69.68;94462.22;2617056;47;20153;-83
2022/07/06 03:31:30;;;;;;;1.80;1.65;;;;;;;20.21;71.12;94434.47;2617260;54;20664;-83
2022/07/06 03:33:59;;;;;;;2.00;1.90;;;;;;;20.34;72.83;94446.59;2617424;54;20164;-83
2022/07/06 03:36:28;;;;;;;2.78;2.03;;;;;;;19.92;71.03;94427.50;2616997;54;20181;-83
2022/07/06 03:38:59;;;;;;;2.38;2.28;;;;;;;20.16;71.06;94469.72;2617200;47;20164;-84
2022/07/06 03:41:28;;;;;;;1.98;1.88;;;;;;;20.29;72.49;94450.94;2617947;54;20157;-85
2022/07/06 03:43:56;;;;;;;2.78;2.58;;;;;;;20.29;71.09;94473.22;2619308;47;20185;-84
2022/07/06 03:46:25;;;;;;;2.97;2.72;;;;;;;20.41;72.03;94459.47;2617239;47;20179;-84
2022/07/06 03:48:54;;;;;;;2.20;2.10;;;;;;;20.60;72.19;94485.22;2617108;54;20260;-82
2022/07/06 03:51:23;;;;;;;2.25;1.90;;;;;;;20.29;69.96;94430.78;2616904;47;20161;-82
2022/07/06 03:53:52;;;;;;;2.42;2.25;;;;;;;20.26;70.13;94445.91;2617069;47;20168;-84
2022/07/06 03:56:32;;;;;;;4.00;2.17;;;;;;;20.28;72.25;94477.53;2616858;54;20152;-84
2022/07/06 03:59:03;;;;;;;2.58;2.45;;;;;;;20.04;72.19;94472.69;2618347;39;20492;-85
2022/07/06 04:01:32;;;;;;;2.70;1.67;;;;;;;19.82;71.38;94451.25;2616845;47;20435;-83
2022/07/06 04:04:00;;;;;;;3.53;2.45;;;;;;;19.62;72.04;94427.69;2617149;47;20260;-83
2022/07/06 04:06:30;;;;;;;1.95;1.85;;;;;;;20.02;73.18;94461.19;2617114;54;20188;-83
2022/07/06 04:08:58;;;;;;;2.75;1.35;;;;;;;20.08;70.99;94478.41;2616964;47;20161;-84
2022/07/06 04:11:30;;;;;;;1.83;1.73;;;;;;;20.13;70.58;94491.28;2617116;47;20176;-83
2022/07/06 04:13:58;;;;;;;1.52;1.42;;;;;;;19.86;70.93;94433.97;2618371;47;20672;-82
2022/07/06 04:16:27;;;;;;;5.28;2.58;;;;;;;20.28;72.06;94475.38;2618562;47;20157;-81
2022/07/06 04:18:56;;;;;;;1.85;1.75;;;;;;;20.53;70.12;94491.03;2618057;47;20168;-84
2022/07/06 04:21:25;;;;;;;1.42;1.27;;;;;;;20.07;70.42;94434.56;2617813;54;20175;-85
2022/07/06 04:23:54;;;;;;;1.58;1.48;;;;;;;19.96;70.01;94443.97;2618059;47;20161;-83
2022/07/06 04:26:22;;;;;;;1.80;1.58;;;;;;;19.72;71.49;94451.31;2617877;47;20164;-82
2022/07/06 04:28:54;;;;;;;2.28;2.03;;;;;;;20.01;71.19;94492.09;2617847;54;20145;-82
2022/07/06 04:31:22;;;;;;;3.45;2.30;;;;;;;19.96;71.54;94464.81;2617636;47;20172;-84
2022/07/06 04:33:52;;;;;;;3.03;2.73;;;;;;;20.18;71.95;94487.69;2617834;46;20267;-83
2022/07/06 04:36:20;;;;;;;2.55;2.35;;;;;;;20.51;70.57;94501.81;2617907;39;20584;-84
2022/07/06 04:38:49;;;;;;;2.20;2.05;;;;;;;20.42;71.92;94512.69;2617717;54;20211;-82
2022/07/06 04:41:18;;;;;;;1.83;1.73;;;;;;;19.89;70.76;94443.31;2617733;54;20179;-81
2022/07/06 04:43:47;;;;;;;3.10;2.87;;;;;;;20.06;71.65;94461.16;2617422;54;20412;-83
2022/07/06 04:46:19;;;;;;;1.73;1.63;;;;;;;20.19;71.46;94502.78;2617546;47;20176;-82
2022/07/06 04:48:48;;;;;;;1.45;1.38;;;;;;;19.90;72.70;94538.88;2617487;54;20157;-80
2022/07/06 04:51:16;;;;;;;1.92;1.83;;;;;;;19.44;75.83;94537.59;2617097;54;20715;-81
2022/07/06 04:53:45;;;;;;;2.13;1.67;;;;;;;19.12;76.68;94547.03;2617657;47;20169;-81
2022/07/06 04:56:14;;;;;;;2.67;2.47;;;;;;;18.88;77.19;94516.19;2617484;54;20276;-82
2022/07/06 04:58:43;;;;;;;3.67;2.97;;;;;;;18.92;77.90;94506.88;2617764;54;20149;-83
2022/07/06 05:01:12;;;;;;;2.33;2.10;;;;;;;18.92;78.13;94559.25;2617643;54;20680;-82
2022/07/06 05:03:43;;;;;;;8.03;2.97;;;;;;;19.01;78.99;94562.81;2617856;47;20717;-82
2022/07/06 05:06:12;;;;;;;2.47;1.88;;;;;;;18.90;79.86;94562.13;2617748;47;20177;-82
2022/07/06 05:08:41;;;;;;;6.83;3.23;;;;;;;18.84;80.42;94547.78;2617544;47;20163;-82
2022/07/06 05:11:09;;;;;;;3.93;3.37;;;;;;;18.94;78.79;94542.03;2617524;46;20161;-82
2022/07/06 05:13:38;;;;;;;3.37;3.13;;;;;;;18.83;78.83;94565.72;2617229;47;20715;-83
2022/07/06 05:16:08;;;;;;;4.20;3.63;;;;;;;18.80;79.23;94536.31;2617543;54;20168;-83
2022/07/06 05:18:37;;;;;;;2.33;2.17;;;;;;;18.33;79.03;94513.34;2617472;46;20221;-81
2022/07/06 05:21:08;;;;;;;2.03;1.93;;;;;;;18.12;79.44;94488.97;2617343;47;20168;-82
2022/07/06 05:23:37;;;;;;;7.00;4.13;;;;;;;18.37;80.25;94536.28;2617350;47;20420;-81
2022/07/06 05:26:05;;;;;;;7.57;3.77;;;;;;;18.83;80.01;94557.81;2617471;47;20203;-82
2022/07/06 05:28:35;;;;;;;3.37;2.97;;;;;;;18.74;78.24;94516.22;2618962;54;20157;-81
2022/07/06 05:31:03;;;;;;;3.00;2.80;;;;;;;19.09;77.41;94580.75;2618185;54;20190;-81
2022/07/06 05:33:32;;;;;;;5.33;3.53;;;;;;;18.43;77.93;94504.75;2617587;47;20692;-82
2022/07/06 05:36:01;;;;;;;3.67;2.53;;;;;;;19.04;77.67;94581.47;2617424;47;20157;-81
2022/07/06 05:38:32;;;;;;;4.47;4.10;;;;;;;19.03;78.44;94563.53;2617399;47;20264;-81
2022/07/06 05:41:01;;;;;;;5.00;3.43;;;;;;;18.86;78.10;94536.28;2617471;54;20176;-82
2022/07/06 05:43:30;;;;;;;2.87;2.57;;;;;;;19.00;77.23;94572.84;2617715;47;20196;-82
2022/07/06 05:45:58;;;;;;;5.70;2.50;;;;;;;19.38;75.40;94584.28;2617142;54;20167;-81
2022/07/06 05:51:09;;;;;;;5.23;2.00;;;;;;;18.86;75.96;94519.06;2616941;47;20770;-82
2022/07/06 05:53:40;;;;;;;5.35;3.05;;;;;;;19.49;76.53;94582.84;2617294;47;20168;-82
2022/07/06 05:56:09;;;;;;;3.23;2.93;;;;;;;19.25;74.45;94531.22;2615375;54;20181;-79
2022/07/06 05:58:38;;;;;;;1.10;1.10;;;;;;;19.44;74.36;94584.25;2615068;54;20183;-87
2022/07/06 06:01:07;;;;;;;4.25;3.85;;;;;;;19.13;74.67;94483.13;2617421;47;20425;-86
2022/07/06 06:03:35;;;;;;;3.47;3.28;;;;;;;18.79;73.97;94451.66;2617968;47;20991;-88
2022/07/06 06:06:08;;;;;;;2.70;2.50;;;;;;;19.78;73.08;94574.13;2617983;47;20219;-86
2022/07/06 06:08:36;;;;;;;2.67;2.58;;;;;;;18.87;73.94;94453.78;2617947;47;20169;-86
2022/07/06 06:11:08;;;;;;;3.08;2.35;;;;;;;18.95;73.54;94468.84;2618999;47;20180;-88
2022/07/06 06:13:37;;;;;;;2.60;2.40;;;;;;;19.41;73.18;94562.00;2620214;54;20173;-87
2022/07/06 06:16:06;;;;;;;4.80;2.33;;;;;;;18.69;73.75;94455.28;2618772;47;20691;-87
2022/07/06 06:18:35;;;;;;;3.28;3.08;;;;;;;19.61;73.91;94582.09;2619747;47;20172;-89
2022/07/06 06:21:04;;;;;;;2.47;2.25;;;;;;;19.33;72.82;94536.19;2619927;47;20191;-88
2022/07/06 06:23:33;;;;;;;2.55;2.35;;;;;;;19.46;73.12;94567.03;2619691;47;20172;-84
2022/07/06 06:26:01;;;;;;;5.13;3.40;;;;;;;18.26;73.81;94374.31;2617731;47;20415;-85
2022/07/06 06:28:33;;;;;;;3.88;3.47;;;;;;;19.10;73.42;94443.69;2621604;39;20591;-89
2022/07/06 06:31:02;;;;;;;5.28;3.08;;;;;;;19.26;73.22;94474.50;2628031;47;20209;-90
2022/07/06 06:33:31;;;;;;;4.75;3.20;;;;;;;18.79;73.59;94392.13;2624666;54;20153;-85
2022/07/06 06:36:00;;;;;;;3.63;3.22;;;;;;;19.88;73.73;94539.59;2615884;47;20684;-87
2022/07/06 06:38:29;;;;;;;5.50;3.40;;;;;;;19.50;73.95;94498.13;2618991;47;20236;-90
2022/07/06 06:40:59;;;;;;;5.18;4.28;;;;;;;19.69;73.49;94489.41;2626479;47;20172;-89
2022/07/06 06:43:27;;;;;;;3.85;3.55;;;;;;;19.77;73.78;94538.94;2626596;46;20219;-89
2022/07/06 06:45:59;;;;;;;3.92;3.63;;;;;;;18.44;73.71;94348.47;2627772;39;20997;-89
2022/07/06 06:48:28;;;;;;;4.32;3.75;;;;;;;19.95;74.53;94532.38;2624609;47;20740;-86
2022/07/06 06:50:57;;;;;;;5.53;4.93;;;;;;;19.39;73.74;94455.78;2616792;54;20157;-85
2022/07/06 06:53:25;;;;;;;4.65;4.25;;;;;;;19.95;73.69;94526.63;2618770;47;20165;-90
2022/07/06 06:56:23;;;;;;;4.75;4.28;;;;;;;20.13;73.95;94592.66;2621307;47;20157;-87
2022/07/06 06:58:59;;;;;;;3.58;3.28;;;;;;;18.92;74.31;94369.13;2620935;54;20180;-89
2022/07/06 07:01:40;;;;;;;5.13;4.55;;;;;;;19.02;72.25;94366.94;2627902;54;20159;-90
2022/07/06 07:10:28;;;;;;;4.35;3.42;;;;;;;20.58;71.88;94584.50;2628504;47;20176;-89
2022/07/06 07:13:00;;;;;;;4.72;3.33;;;;;;;19.07;71.68;94384.84;2630921;54;20161;-90
2022/07/06 07:15:29;;;;;;;6.15;3.88;;;;;;;18.41;72.14;94311.91;2630083;47;20157;-88
2022/07/06 07:18:10;;;;;;;4.53;4.13;;;;;;;19.46;72.17;94462.91;2628648;47;20164;-89
2022/07/06 07:20:39;;;;;;;5.70;3.60;;;;;;;19.68;72.31;94522.47;2628411;47;20157;-89
2022/07/06 07:23:17;;;;;;;4.70;4.28;;;;;;;19.54;73.10;94505.28;2628023;47;20157;-85
2022/07/06 07:25:45;;;;;;;4.80;4.30;;;;;;;19.62;73.50;94505.97;2618281;47;20152;-85
2022/07/06 07:28:15;;;;;;;6.15;3.97;;;;;;;19.62;73.44;94508.84;2617921;54;20168;-86
2022/07/06 07:30:44;;;;;;;12.30;5.57;;;;;;;20.16;72.92;94571.06;2617994;47;20187;-86
2022/07/06 07:33:26;;;;;;;4.28;3.97;;;;;;;18.71;71.52;94377.81;2617978;47;20237;-87
2022/07/06 07:36:09;;;;;;;7.18;5.60;;;;;;;19.93;72.95;94525.94;2609417;47;20164;-86
2022/07/06 07:38:38;;;;;;;5.72;5.22;;;;;;;20.03;72.85;94534.50;2614870;54;20165;-88
2022/07/06 07:41:11;;;;;;;5.07;4.68;;;;;;;18.76;71.58;94313.25;2627348;54;20133;-87
2022/07/06 07:43:39;;;;;;;4.05;3.75;;;;;;;19.10;70.81;94346.81;2624384;54;20192;-83
2022/07/06 07:46:08;;;;;;;5.47;4.97;;;;;;;20.51;71.93;94562.25;2616635;54;20183;-87
2022/07/06 07:49:18;;;;;;;6.07;5.20;;;;;;;19.17;70.27;94328.09;2617028;54;20160;-88
2022/07/06 07:51:47;;;;;;;5.88;4.78;;;;;;;20.88;69.61;94540.38;2620390;47;20241;-86
2022/07/06 07:54:23;;;;;;;3.80;3.42;;;;;;;20.42;69.25;94463.78;2618446;54;20273;-87
2022/07/06 07:56:58;;;;;;;3.97;3.67;;;;;;;20.20;68.77;94429.44;2618982;47;20248;-85
2022/07/06 07:59:31;;;;;;;3.38;3.10;;;;;;;20.28;69.17;94463.16;2620894;54;20689;-83
2022/07/06 08:02:00;;;;;;;2.65;2.55;;;;;;;19.69;70.29;94415.41;2617240;47;20169;-85
2022/07/06 08:07:58;;;;;;;4.78;3.22;;;;;;;19.44;68.81;94308.56;2621189;47;20152;-87
2022/07/06 08:10:38;;;;;;;5.03;4.57;;;;;;;20.73;69.49;94458.47;2626590;47;20168;-89
2022/07/06 08:13:07;;;;;;;4.88;4.47;;;;;;;21.74;67.41;94543.09;2626605;54;20162;-87
2022/07/06 08:15:36;;;;;;;4.53;4.13;;;;;;;22.14;66.92;94570.03;2621241;46;20177;-87
2022/07/06 08:18:05;;;;;;;5.95;4.43;;;;;;;21.75;66.58;94550.28;2617528;47;20216;-88
2022/07/06 08:20:34;;;;;;;4.47;3.83;;;;;;;21.89;66.97;94576.06;2621855;47;20172;-85
2022/07/06 08:23:05;;;;;;;5.95;5.35;;;;;;;21.89;66.47;94570.28;2621695;47;20408;-81
2022/07/06 08:28:28;;;;;;;5.75;3.80;;;;;;;20.72;65.82;94421.81;2614367;47;20196;-83
2022/07/06 08:31:20;;;;;;;3.88;3.47;;;;;;;20.81;65.45;94446.88;2616255;54;20164;-85
2022/07/06 08:33:48;;;;;;;10.57;4.55;;;;;;;21.04;65.63;94469.69;2614832;47;20173;-86
2022/07/06 08:36:26;;;;;;;4.68;3.60;;;;;;;20.98;65.32;94461.13;2618383;47;20164;-88
2022/07/06 08:38:58;;;;;;;4.75;4.30;;;;;;;20.60;65.19;94365.09;2620680;54;20171;-84
2022/07/06 08:41:33;;;;;;;5.50;5.00;;;;;;;20.37;65.65;94324.31;2616475;54;20173;-88
2022/07/06 08:47:35;;;;;;;4.57;3.97;;;;;;;22.32;65.12;94575.53;2616881;39;20511;-82
2022/07/06 08:50:21;;;;;;;5.95;4.90;;;;;;;22.28;65.64;94566.91;2615631;54;20192;-85
2022/07/06 08:52:53;;;;;;;3.90;3.53;;;;;;;21.75;65.81;94524.34;2615878;54;20160;-83
2022/07/06 09:01:00;;;;;;;5.95;4.78;;;;;;;22.52;67.08;94574.53;2614034;54;20581;-87
2022/07/06 09:03:30;;;;;;;5.43;4.63;;;;;;;22.39;65.29;94541.53;2626498;46;20164;-84
2022/07/06 09:06:02;;;;;;;5.43;4.53;;;;;;;21.01;64.66;94307.06;2617206;54;20168;-84
2022/07/06 09:08:35;;;;;;;4.55;4.15;;;;;;;22.68;64.32;94543.25;2616914;47;21006;-85
2022/07/06 09:11:06;;;;;;;4.45;4.07;;;;;;;22.54;63.77;94517.50;2617457;47;20174;-83
2022/07/06 09:13:35;;;;;;;5.93;5.07;;;;;;;22.27;62.95;94442.19;2616421;47;20683;-85
2022/07/06 09:16:51;;;;;;;6.15;5.15;;;;;;;21.34;63.77;94310.94;2617644;47;20169;-86
2022/07/06 09:19:30;;;;;;;5.30;4.30;;;;;;;22.21;62.93;94404.06;2617062;47;20200;-87
2022/07/06 09:22:51;;;;;;;4.53;4.22;;;;;;;21.20;62.67;94319.75;2615065;47;20222;-85
2022/07/06 09:25:23;;;;;;;4.70;4.30;;;;;;;21.20;62.96;94317.59;2617206;54;20157;-80
2022/07/06 09:27:58;;;;;;;3.97;3.58;;;;;;;22.99;62.68;94554.31;2615914;54;20184;-83
2022/07/06 09:30:29;;;;;;;6.15;4.63;;;;;;;22.94;63.16;94542.13;2616660;54;20260;-82
2022/07/06 09:33:02;;;;;;;5.82;4.25;;;;;;;21.86;62.76;94401.69;2624045;46;20396;-85
2022/07/06 09:35:33;;;;;;;4.55;4.15;;;;;;;21.94;60.93;94374.88;2616977;54;20176;-86
2022/07/06 09:38:11;;;;;;;4.05;3.75;;;;;;;22.84;62.45;94544.47;2618043;47;20161;-87
2022/07/06 09:40:42;;;;;;;6.50;4.43;;;;;;;23.15;61.81;94554.03;2619836;47;20143;-84
2022/07/06 09:43:15;;;;;;;4.32;3.92;;;;;;;22.51;61.12;94449.00;2617779;39;20544;-83
2022/07/06 09:45:45;;;;;;;3.83;3.50;;;;;;;21.94;61.47;94392.91;2617080;54;20172;-83
2022/07/06 09:48:18;;;;;;;5.80;4.80;;;;;;;22.71;61.69;94494.84;2617280;47;20161;-82
2022/07/06 09:50:53;;;;;;;4.28;3.90;;;;;;;23.65;61.28;94545.91;2617241;54;20172;-83
2022/07/06 09:53:26;;;;;;;3.83;3.53;;;;;;;22.39;59.70;94414.59;2617390;39;20224;-83
2022/07/06 09:55:58;;;;;;;6.00;5.20;;;;;;;23.39;60.31;94509.53;2617634;39;20551;-80
2022/07/06 10:06:21;;;;;;;5.65;4.43;;;;;;;23.16;58.82;94445.69;2617921;54;20200;-82
2022/07/06 10:09:16;;;;;;;4.32;3.78;;;;;;;23.17;59.15;94490.44;2616757;47;20156;-86
2022/07/06 10:11:48;;;;;;;6.88;6.18;;;;;;;23.58;59.37;94542.44;2616533;54;20990;-83
2022/07/06 10:14:20;;;;;;;4.70;4.35;;;;;;;22.62;58.68;94450.25;2617188;54;20172;-81
2022/07/06 10:16:50;;;;;;;3.83;2.80;;;;;;;22.47;58.89;94432.47;2616934;47;20160;-83
2022/07/06 10:19:21;;;;;;;4.45;4.05;;;;;;;23.35;58.97;94521.91;2617117;53;20192;-78
2022/07/06 10:21:54;;;;;;;3.78;3.47;;;;;;;23.48;59.26;94536.84;2617329;54;20187;-79
2022/07/06 10:24:23;;;;;;;5.60;3.95;;;;;;;23.77;59.12;94534.13;2616930;47;20169;-78
2022/07/06 10:26:54;;;;;;;7.10;5.60;;;;;;;23.67;59.33;94490.94;2617241;47;20789;-84
2022/07/06 10:29:37;;;;;;;5.25;4.75;;;;;;;24.25;57.75;94523.00;2617114;47;20169;-80
2022/07/06 10:32:08;;;;;;;7.07;5.10;;;;;;;23.93;57.37;94478.09;2617776;54;20187;-79
2022/07/06 10:34:37;;;;;;;7.90;5.45;;;;;;;24.42;56.97;94492.25;2617894;54;20172;-83
2022/07/06 10:37:09;;;;;;;4.90;4.45;;;;;;;24.20;57.58;94531.03;2617388;47;20164;-83
2022/07/06 10:42:45;;;;;;;5.55;4.97;;;;;;;24.57;56.10;94521.56;2617829;39;20551;-87
2022/07/06 10:45:15;;;;;;;7.10;4.95;;;;;;;24.69;56.13;94529.97;2616532;47;20157;-80
2022/07/06 10:47:45;;;;;;;5.50;5.10;;;;;;;24.62;55.79;94526.50;2616928;47;20691;-82
2022/07/06 10:53:29;;;;;;;2.67;2.58;;;;;;;24.18;56.02;94524.59;2615441;47;20165;-88
2022/07/06 10:55:59;;;;;;;4.65;4.10;;;;;;;23.09;56.21;94363.53;2616320;47;20164;-87
2022/07/06 10:58:43;;;;;;;4.22;3.83;;;;;;;23.32;56.57;94396.25;2617173;47;20660;-87
2022/07/06 11:01:24;;;;;;;4.65;4.25;;;;;;;23.59;56.25;94422.47;2614562;54;20148;-86
2022/07/06 11:07:17;;;;;;;4.38;3.95;;;;;;;22.59;54.77;94311.03;2616225;47;20200;-86
2022/07/06 11:22:24;;;;;;;4.50;4.10;;;;;;;25.35;52.65;94526.88;2615167;39;20711;-82
2022/07/06 11:24:55;;;;;;;3.65;3.35;;;;;;;24.11;53.27;94411.16;2616146;47;20160;-82
2022/07/06 11:33:57;;;;;;;4.03;3.67;;;;;;;24.74;52.52;94508.81;2615193;47;20176;-81
2022/07/06 11:58:37;;;;;;;5.22;4.72;;;;;;;25.25;50.97;94474.97;2611698;47;20146;-82
2022/07/06 12:01:07;;;;;;;4.30;3.97;;;;;;;25.07;51.50;94450.81;2613693;47;20167;-81
2022/07/06 12:03:36;;;;;;;3.58;3.35;;;;;;;25.11;52.32;94478.97;2614136;47;20168;-85
2022/07/06 12:06:04;;;;;;;4.43;3.50;;;;;;;24.99;51.55;94461.91;2617399;54;20176;-82
2022/07/06 12:08:34;;;;;;;6.55;5.95;;;;;;;25.23;52.47;94469.94;2616450;47;20177;-86
2022/07/06 12:11:03;;;;;;;4.78;4.32;;;;;;;24.49;51.07;94374.09;2617447;47;20267;-86
2022/07/06 12:16:34;;;;;;;5.82;5.28;;;;;;;25.11;51.66;94442.00;2617744;47;20172;-87
2022/07/06 12:19:03;;;;;;;3.67;3.38;;;;;;;24.19;50.58;94390.03;2619811;47;20156;-84
2022/07/06 12:21:33;;;;;;;6.95;3.97;;;;;;;24.35;50.70;94416.41;2617320;39;20564;-81
2022/07/06 12:24:02;;;;;;;5.55;5.05;;;;;;;25.04;52.11;94489.28;2619799;31;20760;-88
2022/07/06 12:29:42;;;;;;;5.18;4.78;;;;;;;24.92;50.54;94425.84;2616490;47;20165;-83
2022/07/06 12:32:17;;;;;;;3.53;3.22;;;;;;;25.31;50.48;94484.22;2617559;47;20165;-85
2022/07/06 12:34:47;;;;;;;5.10;4.68;;;;;;;24.01;50.85;94368.75;2617220;47;20156;-86
2022/07/06 12:37:36;;;;;;;4.85;3.13;;;;;;;23.93;51.30;94377.59;2618437;47;20161;-83
2022/07/06 12:40:14;;;;;;;3.95;3.65;;;;;;;24.32;51.69;94425.91;2617314;47;20165;-81
2022/07/06 12:42:50;;;;;;;3.40;3.20;;;;;;;23.86;51.83;94387.88;2617118;54;20179;-84
2022/07/06 12:45:38;;;;;;;4.70;4.15;;;;;;;23.14;51.94;94301.28;2620235;54;20152;-86
2022/07/06 12:48:16;;;;;;;4.10;3.80;;;;;;;23.74;52.40;94351.28;2617502;54;20168;-81
2022/07/06 12:50:59;;;;;;;3.22;2.88;;;;;;;24.46;51.86;94419.06;2617337;54;20168;-82
2022/07/06 12:53:30;;;;;;;3.53;3.33;;;;;;;24.80;51.91;94427.59;2618060;54;20184;-81
2022/07/06 12:56:21;;;;;;;3.28;3.08;;;;;;;24.07;52.11;94328.06;2617504;47;20212;-85
2022/07/06 13:01:58;;;;;;;3.88;3.58;;;;;;;23.97;51.15;94287.84;2616847;54;20160;-82
2022/07/06 13:04:31;;;;;;;2.40;2.30;;;;;;;24.95;50.60;94435.94;2617503;54;20145;-84
2022/07/06 13:16:55;;;;;;;2.72;2.55;;;;;;;25.54;50.71;94463.31;2620513;46;20204;-88
2022/07/06 13:31:16;;;;;;;0.50;0.50;;;;;;;24.16;48.79;94284.50;2617880;54;20242;-89
2022/07/06 13:34:25;;;;;;;;;;;;;;;;;;;;;
2022/07/06 13:36:57;;;;;;;1.52;1.52;;;;;;;25.07;49.32;94456.59;2620086;39;20604;-82
2022/07/06 13:39:27;;;;;;;2.38;2.28;;;;;;;24.66;50.33;94370.03;2618539;54;20160;-87
2022/07/06 13:41:56;;;;;;;1.90;1.67;;;;;;;23.71;48.95;94280.53;2619082;47;20157;-84
2022/07/06 13:44:31;;;;;;;2.60;2.50;;;;;;;24.39;50.25;94338.16;2617170;47;20152;-87
2022/07/06 13:47:07;;;;;;;2.20;2.10;;;;;;;25.38;48.78;94447.09;2616525;47;20179;-81
2022/07/06 13:49:36;;;;;;;2.20;2.10;;;;;;;24.91;48.35;94416.44;2616104;54;20164;-82
2022/07/06 13:52:06;;;;;;;1.98;1.88;;;;;;;24.87;48.82;94425.25;2614355;54;20161;-85